sensor_id;sensor_type;location;lat;lon;timestamp;P1;durP1;ratioP1;P2;durP2;ratioP2
21120;SDS011;12519;43.318;21.898;2022-08-01T00:03:14;9.0;;;9.0;;
21120;SDS011;12519;43.318;21.898;2022-08-01T00:07:50;8.0;;;8.0;;
21120;SDS011;12519;43.318;21.898;2022-08-01T00:12:27;8.0;;;8.0;;
21120;SDS011;12519;43.318;21.898;2022-08-01T00:17:03;8.0;;;7.0;;
21120;SDS011;12519;43.318;21.898;2022-08-01T00:21:40;8.0;;;7.0;;
21120;SDS011;12519;43.318;21.898;2022-08-01T00:26:17;8.0;;;6.0;;
21120;SDS011;12519;43.318;21.898;2022-08-01T00:30:53;8.0;;;6.0;;
21120;SDS011;12519;43.318;21.898;2022-08-01T00:35:30;8.0;;;6.0;;
21120;SDS011;12519;43.318;21.898;2022-08-01T00:40:07;7.0;;;6.0;;
21120;SDS011;12519;43.318;21.898;2022-08-01T00:44:46;7.0;;;6.0;;
21120;SDS011;12519;43.318;21.898;2022-08-01T00:49:24;6.0;;;6.0;;
21120;SDS011;12519;43.318;21.898;2022-08-01T00:54:02;6.0;;;6.0;;
21120;SDS011;12519;43.318;21.898;2022-08-01T00:58:39;6.0;;;6.0;;
21120;SDS011;12519;43.318;21.898;2022-08-01T01:03:16;6.0;;;6.0;;
21120;SDS011;12519;43.318;21.898;2022-08-01T01:07:55;7.0;;;6.0;;
21120;SDS011;12519;43.318;21.898;2022-08-01T01:13:16;7.0;;;6.0;;
21120;SDS011;12519;43.318;21.898;2022-08-01T01:18:33;8.0;;;7.0;;
21120;SDS011;12519;43.318;21.898;2022-08-01T01:23:34;8.0;;;7.0;;
21120;SDS011;12519;43.318;21.898;2022-08-01T01:29:09;7.0;;;6.0;;
21120;SDS011;12519;43.318;21.898;2022-08-01T01:34:11;7.0;;;6.0;;
21120;SDS011;12519;43.318;21.898;2022-08-01T01:39:02;6.0;;;5.0;;
21120;SDS011;12519;43.318;21.898;2022-08-01T01:43:41;6.0;;;5.0;;
21120;SDS011;12519;43.318;21.898;2022-08-01T01:48:29;6.0;;;6.0;;
21120;SDS011;12519;43.318;21.898;2022-08-01T01:53:16;6.0;;;6.0;;
21120;SDS011;12519;43.318;21.898;2022-08-01T01:58:12;6.0;;;6.0;;
21120;SDS011;12519;43.318;21.898;2022-08-01T02:03:04;6.0;;;6.0;;
21120;SDS011;12519;43.318;21.898;2022-08-01T02:07:56;6.0;;;6.0;;
21120;SDS011;12519;43.318;21.898;2022-08-01T02:12:41;6.0;;;6.0;;
21120;SDS011;12519;43.318;21.898;2022-08-01T02:17:27;6.0;;;5.0;;
21120;SDS011;12519;43.318;21.898;2022-08-01T02:22:24;6.0;;;5.0;;
21120;SDS011;12519;43.318;21.898;2022-08-01T02:27:34;6.0;;;6.0;;
21120;SDS011;12519;43.318;21.898;2022-08-01T02:32:44;6.0;;;6.0;;
21120;SDS011;12519;43.318;21.898;2022-08-01T02:37:51;7.0;;;6.0;;
21120;SDS011;12519;43.318;21.898;2022-08-01T02:42:40;7.0;;;6.0;;
21120;SDS011;12519;43.318;21.898;2022-08-01T02:47:32;7.0;;;6.0;;
21120;SDS011;12519;43.318;21.898;2022-08-01T02:52:20;7.0;;;6.0;;
21120;SDS011;12519;43.318;21.898;2022-08-01T02:57:08;7.0;;;6.0;;
21120;SDS011;12519;43.318;21.898;2022-08-01T03:01:49;7.0;;;6.0;;
21120;SDS011;12519;43.318;21.898;2022-08-01T03:06:35;7.0;;;6.0;;
21120;SDS011;12519;43.318;21.898;2022-08-01T03:11:17;7.0;;;6.0;;
21120;SDS011;12519;43.318;21.898;2022-08-01T03:16:02;7.0;;;6.0;;
21120;SDS011;12519;43.318;21.898;2022-08-01T03:20:48;7.0;;;6.0;;
21120;SDS011;12519;43.318;21.898;2022-08-01T03:25:37;7.0;;;6.0;;
21120;SDS011;12519;43.318;21.898;2022-08-01T03:30:25;8.0;;;6.0;;
21120;SDS011;12519;43.318;21.898;2022-08-01T03:35:13;8.0;;;6.0;;
21120;SDS011;12519;43.318;21.898;2022-08-01T03:39:54;9.0;;;7.0;;
21120;SDS011;12519;43.318;21.898;2022-08-01T03:45:02;9.0;;;7.0;;
21120;SDS011;12519;43.318;21.898;2022-08-01T03:50:02;8.0;;;6.0;;
21120;SDS011;12519;43.318;21.898;2022-08-01T03:54:50;8.0;;;6.0;;
21120;SDS011;12519;43.318;21.898;2022-08-01T03:59:46;6.0;;;5.0;;
21120;SDS011;12519;43.318;21.898;2022-08-01T04:04:28;6.0;;;5.0;;
21120;SDS011;12519;43.318;21.898;2022-08-01T04:09:08;6.0;;;5.0;;
21120;SDS011;12519;43.318;21.898;2022-08-01T04:13:47;6.0;;;5.0;;
21120;SDS011;12519;43.318;21.898;2022-08-01T04:18:23;5.0;;;5.0;;
21120;SDS011;12519;43.318;21.898;2022-08-01T04:23:01;5.0;;;5.0;;
21120;SDS011;12519;43.318;21.898;2022-08-01T04:27:42;6.0;;;5.0;;
21120;SDS011;12519;43.318;21.898;2022-08-01T04:32:33;6.0;;;5.0;;
21120;SDS011;12519;43.318;21.898;2022-08-01T04:37:34;6.0;;;5.0;;
21120;SDS011;12519;43.318;21.898;2022-08-01T04:42:26;6.0;;;5.0;;
21120;SDS011;12519;43.318;21.898;2022-08-01T04:47:05;6.0;;;5.0;;
21120;SDS011;12519;43.318;21.898;2022-08-01T04:51:50;6.0;;;5.0;;
21120;SDS011;12519;43.318;21.898;2022-08-01T04:56:32;5.0;;;5.0;;
21120;SDS011;12519;43.318;21.898;2022-08-01T05:01:10;5.0;;;5.0;;
21120;SDS011;12519;43.318;21.898;2022-08-01T05:05:49;5.0;;;5.0;;
21120;SDS011;12519;43.318;21.898;2022-08-01T05:10:26;6.0;;;5.0;;
21120;SDS011;12519;43.318;21.898;2022-08-01T05:15:04;6.0;;;5.0;;
21120;SDS011;12519;43.318;21.898;2022-08-01T05:19:45;6.0;;;5.0;;
21120;SDS011;12519;43.318;21.898;2022-08-01T05:24:21;6.0;;;5.0;;
21120;SDS011;12519;43.318;21.898;2022-08-01T05:28:57;10.0;;;7.0;;
21120;SDS011;12519;43.318;21.898;2022-08-01T05:33:34;10.0;;;7.0;;
21120;SDS011;12519;43.318;21.898;2022-08-01T05:38:11;14.0;;;9.0;;
21120;SDS011;12519;43.318;21.898;2022-08-01T05:42:48;14.0;;;9.0;;
21120;SDS011;12519;43.318;21.898;2022-08-01T05:47:24;10.0;;;8.0;;
21120;SDS011;12519;43.318;21.898;2022-08-01T05:52:01;10.0;;;8.0;;
21120;SDS011;12519;43.318;21.898;2022-08-01T05:56:38;7.0;;;6.0;;
21120;SDS011;12519;43.318;21.898;2022-08-01T06:01:15;7.0;;;6.0;;
21120;SDS011;12519;43.318;21.898;2022-08-01T06:05:54;7.0;;;6.0;;
21120;SDS011;12519;43.318;21.898;2022-08-01T06:10:32;7.0;;;6.0;;
21120;SDS011;12519;43.318;21.898;2022-08-01T06:15:09;7.0;;;6.0;;
21120;SDS011;12519;43.318;21.898;2022-08-01T06:19:48;7.0;;;6.0;;
21120;SDS011;12519;43.318;21.898;2022-08-01T06:24:24;7.0;;;6.0;;
21120;SDS011;12519;43.318;21.898;2022-08-01T06:29:01;8.0;;;8.0;;
21120;SDS011;12519;43.318;21.898;2022-08-01T06:33:38;8.0;;;8.0;;
21120;SDS011;12519;43.318;21.898;2022-08-01T06:38:15;10.0;;;9.0;;
21120;SDS011;12519;43.318;21.898;2022-08-01T06:42:52;10.0;;;9.0;;
21120;SDS011;12519;43.318;21.898;2022-08-01T06:47:29;9.0;;;8.0;;
21120;SDS011;12519;43.318;21.898;2022-08-01T06:52:06;9.0;;;8.0;;
21120;SDS011;12519;43.318;21.898;2022-08-01T06:56:43;8.0;;;7.0;;
21120;SDS011;12519;43.318;21.898;2022-08-01T07:01:19;8.0;;;7.0;;
21120;SDS011;12519;43.318;21.898;2022-08-01T07:05:56;8.0;;;7.0;;
21120;SDS011;12519;43.318;21.898;2022-08-01T07:10:33;8.0;;;7.0;;
21120;SDS011;12519;43.318;21.898;2022-08-01T07:15:11;8.0;;;7.0;;
21120;SDS011;12519;43.318;21.898;2022-08-01T07:19:49;8.0;;;7.0;;
21120;SDS011;12519;43.318;21.898;2022-08-01T07:24:26;8.0;;;7.0;;
21120;SDS011;12519;43.318;21.898;2022-08-01T07:29:04;9.0;;;8.0;;
21120;SDS011;12519;43.318;21.898;2022-08-01T07:33:42;9.0;;;8.0;;
21120;SDS011;12519;43.318;21.898;2022-08-01T07:38:19;10.0;;;10.0;;
21120;SDS011;12519;43.318;21.898;2022-08-01T07:42:56;10.0;;;10.0;;
21120;SDS011;12519;43.318;21.898;2022-08-01T07:47:34;10.0;;;10.0;;
21120;SDS011;12519;43.318;21.898;2022-08-01T07:52:12;10.0;;;10.0;;
21120;SDS011;12519;43.318;21.898;2022-08-01T07:56:49;11.0;;;9.0;;
21120;SDS011;12519;43.318;21.898;2022-08-01T08:01:26;11.0;;;9.0;;
21120;SDS011;12519;43.318;21.898;2022-08-01T08:06:03;11.0;;;9.0;;
21120;SDS011;12519;43.318;21.898;2022-08-01T08:10:41;12.0;;;10.0;;
21120;SDS011;12519;43.318;21.898;2022-08-01T08:15:17;12.0;;;10.0;;
21120;SDS011;12519;43.318;21.898;2022-08-01T08:19:54;12.0;;;10.0;;
21120;SDS011;12519;43.318;21.898;2022-08-01T08:24:31;12.0;;;10.0;;
21120;SDS011;12519;43.318;21.898;2022-08-01T08:29:07;10.0;;;8.0;;
21120;SDS011;12519;43.318;21.898;2022-08-01T08:33:43;10.0;;;8.0;;
21120;SDS011;12519;43.318;21.898;2022-08-01T08:38:20;7.0;;;7.0;;
21120;SDS011;12519;43.318;21.898;2022-08-01T08:42:56;7.0;;;7.0;;
21120;SDS011;12519;43.318;21.898;2022-08-01T08:47:41;8.0;;;8.0;;
21120;SDS011;12519;43.318;21.898;2022-08-01T08:52:24;8.0;;;8.0;;
21120;SDS011;12519;43.318;21.898;2022-08-01T08:57:05;9.0;;;8.0;;
21120;SDS011;12519;43.318;21.898;2022-08-01T09:01:49;9.0;;;8.0;;
21120;SDS011;12519;43.318;21.898;2022-08-01T09:06:28;9.0;;;8.0;;
21120;SDS011;12519;43.318;21.898;2022-08-01T09:11:06;8.0;;;8.0;;
21120;SDS011;12519;43.318;21.898;2022-08-01T09:15:43;8.0;;;8.0;;
21120;SDS011;12519;43.318;21.898;2022-08-01T09:20:31;8.0;;;8.0;;
21120;SDS011;12519;43.318;21.898;2022-08-01T09:25:09;8.0;;;8.0;;
21120;SDS011;12519;43.318;21.898;2022-08-01T09:29:46;8.0;;;8.0;;
21120;SDS011;12519;43.318;21.898;2022-08-01T09:34:27;8.0;;;8.0;;
21120;SDS011;12519;43.318;21.898;2022-08-01T09:39:11;7.0;;;7.0;;
21120;SDS011;12519;43.318;21.898;2022-08-01T09:43:52;7.0;;;7.0;;
21120;SDS011;12519;43.318;21.898;2022-08-01T09:48:28;8.0;;;8.0;;
21120;SDS011;12519;43.318;21.898;2022-08-01T09:53:07;8.0;;;8.0;;
21120;SDS011;12519;43.318;21.898;2022-08-01T09:57:54;9.0;;;9.0;;
21120;SDS011;12519;43.318;21.898;2022-08-01T10:02:34;9.0;;;9.0;;
21120;SDS011;12519;43.318;21.898;2022-08-01T10:07:17;8.0;;;8.0;;
21120;SDS011;12519;43.318;21.898;2022-08-01T10:11:58;8.0;;;8.0;;
21120;SDS011;12519;43.318;21.898;2022-08-01T10:16:41;8.0;;;8.0;;
21120;SDS011;12519;43.318;21.898;2022-08-01T10:21:26;7.0;;;7.0;;
21120;SDS011;12519;43.318;21.898;2022-08-01T10:26:15;7.0;;;7.0;;
21120;SDS011;12519;43.318;21.898;2022-08-01T10:30:54;8.0;;;6.0;;
21120;SDS011;12519;43.318;21.898;2022-08-01T10:35:38;8.0;;;6.0;;
21120;SDS011;12519;43.318;21.898;2022-08-01T10:40:21;9.0;;;5.0;;
21120;SDS011;12519;43.318;21.898;2022-08-01T10:45:01;9.0;;;5.0;;
21120;SDS011;12519;43.318;21.898;2022-08-01T10:49:47;8.0;;;6.0;;
21120;SDS011;12519;43.318;21.898;2022-08-01T10:55:04;8.0;;;6.0;;
21120;SDS011;12519;43.318;21.898;2022-08-01T10:59:47;8.0;;;7.0;;
21120;SDS011;12519;43.318;21.898;2022-08-01T11:04:32;8.0;;;7.0;;
21120;SDS011;12519;43.318;21.898;2022-08-01T11:09:39;7.0;;;6.0;;
21120;SDS011;12519;43.318;21.898;2022-08-01T11:14:27;7.0;;;6.0;;
21120;SDS011;12519;43.318;21.898;2022-08-01T11:19:06;6.0;;;6.0;;
21120;SDS011;12519;43.318;21.898;2022-08-01T11:23:46;6.0;;;6.0;;
21120;SDS011;12519;43.318;21.898;2022-08-01T11:28:27;6.0;;;6.0;;
21120;SDS011;12519;43.318;21.898;2022-08-01T11:33:05;6.0;;;6.0;;
21120;SDS011;12519;43.318;21.898;2022-08-01T11:37:43;7.0;;;7.0;;
21120;SDS011;12519;43.318;21.898;2022-08-01T11:42:20;7.0;;;7.0;;
21120;SDS011;12519;43.318;21.898;2022-08-01T11:46:59;7.0;;;7.0;;
21120;SDS011;12519;43.318;21.898;2022-08-01T11:51:42;8.0;;;7.0;;
21120;SDS011;12519;43.318;21.898;2022-08-01T11:56:19;8.0;;;7.0;;
21120;SDS011;12519;43.318;21.898;2022-08-01T12:00:59;8.0;;;7.0;;
21120;SDS011;12519;43.318;21.898;2022-08-01T12:05:36;8.0;;;7.0;;
21120;SDS011;12519;43.318;21.898;2022-08-01T12:10:14;8.0;;;6.0;;
21120;SDS011;12519;43.318;21.898;2022-08-01T12:15:03;8.0;;;6.0;;
21120;SDS011;12519;43.318;21.898;2022-08-01T12:19:49;7.0;;;6.0;;
21120;SDS011;12519;43.318;21.898;2022-08-01T12:24:26;7.0;;;6.0;;
21120;SDS011;12519;43.318;21.898;2022-08-01T12:29:02;7.0;;;6.0;;
21120;SDS011;12519;43.318;21.898;2022-08-01T12:33:39;7.0;;;6.0;;
21120;SDS011;12519;43.318;21.898;2022-08-01T12:38:18;7.0;;;7.0;;
21120;SDS011;12519;43.318;21.898;2022-08-01T12:42:59;7.0;;;7.0;;
21120;SDS011;12519;43.318;21.898;2022-08-01T12:47:54;7.0;;;7.0;;
21120;SDS011;12519;43.318;21.898;2022-08-01T12:52:44;7.0;;;7.0;;
21120;SDS011;12519;43.318;21.898;2022-08-01T12:57:27;7.0;;;7.0;;
21120;SDS011;12519;43.318;21.898;2022-08-01T13:02:08;7.0;;;7.0;;
21120;SDS011;12519;43.318;21.898;2022-08-01T13:06:45;7.0;;;7.0;;
21120;SDS011;12519;43.318;21.898;2022-08-01T13:11:29;7.0;;;6.0;;
21120;SDS011;12519;43.318;21.898;2022-08-01T13:16:07;7.0;;;6.0;;
21120;SDS011;12519;43.318;21.898;2022-08-01T13:20:49;7.0;;;6.0;;
21120;SDS011;12519;43.318;21.898;2022-08-01T13:25:50;7.0;;;6.0;;
21120;SDS011;12519;43.318;21.898;2022-08-01T13:30:31;7.0;;;6.0;;
21120;SDS011;12519;43.318;21.898;2022-08-01T13:35:09;7.0;;;6.0;;
21120;SDS011;12519;43.318;21.898;2022-08-01T13:39:49;7.0;;;7.0;;
21120;SDS011;12519;43.318;21.898;2022-08-01T13:44:25;7.0;;;7.0;;
21120;SDS011;12519;43.318;21.898;2022-08-01T13:49:02;7.0;;;6.0;;
21120;SDS011;12519;43.318;21.898;2022-08-01T13:53:44;7.0;;;6.0;;
21120;SDS011;12519;43.318;21.898;2022-08-01T13:58:20;7.0;;;6.0;;
21120;SDS011;12519;43.318;21.898;2022-08-01T14:02:58;7.0;;;6.0;;
21120;SDS011;12519;43.318;21.898;2022-08-01T14:07:35;7.0;;;6.0;;
21120;SDS011;12519;43.318;21.898;2022-08-01T14:12:12;7.0;;;6.0;;
21120;SDS011;12519;43.318;21.898;2022-08-01T14:16:48;7.0;;;6.0;;
21120;SDS011;12519;43.318;21.898;2022-08-01T14:21:24;7.0;;;7.0;;
21120;SDS011;12519;43.318;21.898;2022-08-01T14:26:01;7.0;;;7.0;;
21120;SDS011;12519;43.318;21.898;2022-08-01T14:30:38;8.0;;;8.0;;
21120;SDS011;12519;43.318;21.898;2022-08-01T14:35:15;8.0;;;8.0;;
21120;SDS011;12519;43.318;21.898;2022-08-01T14:39:52;10.0;;;8.0;;
21120;SDS011;12519;43.318;21.898;2022-08-01T14:44:28;10.0;;;8.0;;
21120;SDS011;12519;43.318;21.898;2022-08-01T14:49:05;10.0;;;8.0;;
21120;SDS011;12519;43.318;21.898;2022-08-01T14:53:42;10.0;;;8.0;;
21120;SDS011;12519;43.318;21.898;2022-08-01T14:58:19;9.0;;;8.0;;
21120;SDS011;12519;43.318;21.898;2022-08-01T15:02:56;9.0;;;8.0;;
21120;SDS011;12519;43.318;21.898;2022-08-01T15:07:33;8.0;;;8.0;;
21120;SDS011;12519;43.318;21.898;2022-08-01T15:12:13;8.0;;;8.0;;
21120;SDS011;12519;43.318;21.898;2022-08-01T15:16:51;8.0;;;8.0;;
21120;SDS011;12519;43.318;21.898;2022-08-01T15:21:28;7.0;;;7.0;;
21120;SDS011;12519;43.318;21.898;2022-08-01T15:26:06;7.0;;;7.0;;
21120;SDS011;12519;43.318;21.898;2022-08-01T15:30:43;8.0;;;6.0;;
21120;SDS011;12519;43.318;21.898;2022-08-01T15:35:21;8.0;;;6.0;;
21120;SDS011;12519;43.318;21.898;2022-08-01T15:39:58;8.0;;;6.0;;
21120;SDS011;12519;43.318;21.898;2022-08-01T15:44:36;8.0;;;6.0;;
21120;SDS011;12519;43.318;21.898;2022-08-01T15:49:17;7.0;;;6.0;;
21120;SDS011;12519;43.318;21.898;2022-08-01T15:53:55;7.0;;;6.0;;
21120;SDS011;12519;43.318;21.898;2022-08-01T15:58:33;6.0;;;5.0;;
21120;SDS011;12519;43.318;21.898;2022-08-01T16:03:10;6.0;;;5.0;;
21120;SDS011;12519;43.318;21.898;2022-08-01T16:07:47;6.0;;;6.0;;
21120;SDS011;12519;43.318;21.898;2022-08-01T16:12:24;6.0;;;6.0;;
21120;SDS011;12519;43.318;21.898;2022-08-01T16:17:01;6.0;;;6.0;;
21120;SDS011;12519;43.318;21.898;2022-08-01T16:21:38;6.0;;;6.0;;
21120;SDS011;12519;43.318;21.898;2022-08-01T16:26:15;6.0;;;6.0;;
21120;SDS011;12519;43.318;21.898;2022-08-01T16:30:54;7.0;;;7.0;;
21120;SDS011;12519;43.318;21.898;2022-08-01T16:35:31;7.0;;;7.0;;
21120;SDS011;12519;43.318;21.898;2022-08-01T16:40:08;8.0;;;8.0;;
21120;SDS011;12519;43.318;21.898;2022-08-01T16:44:47;8.0;;;8.0;;
21120;SDS011;12519;43.318;21.898;2022-08-01T16:49:23;8.0;;;8.0;;
21120;SDS011;12519;43.318;21.898;2022-08-01T16:54:00;8.0;;;8.0;;
21120;SDS011;12519;43.318;21.898;2022-08-01T16:58:37;8.0;;;8.0;;
21120;SDS011;12519;43.318;21.898;2022-08-01T17:03:13;8.0;;;8.0;;
21120;SDS011;12519;43.318;21.898;2022-08-01T17:07:50;8.0;;;8.0;;
21120;SDS011;12519;43.318;21.898;2022-08-01T17:12:26;8.0;;;8.0;;
21120;SDS011;12519;43.318;21.898;2022-08-01T17:17:05;8.0;;;8.0;;
21120;SDS011;12519;43.318;21.898;2022-08-01T17:21:42;9.0;;;7.0;;
21120;SDS011;12519;43.318;21.898;2022-08-01T17:26:19;9.0;;;7.0;;
21120;SDS011;12519;43.318;21.898;2022-08-01T17:30:56;8.0;;;7.0;;
21120;SDS011;12519;43.318;21.898;2022-08-01T17:35:33;8.0;;;7.0;;
21120;SDS011;12519;43.318;21.898;2022-08-01T17:40:10;8.0;;;7.0;;
21120;SDS011;12519;43.318;21.898;2022-08-01T17:44:50;8.0;;;7.0;;
21120;SDS011;12519;43.318;21.898;2022-08-01T17:49:26;8.0;;;7.0;;
21120;SDS011;12519;43.318;21.898;2022-08-01T17:54:04;8.0;;;7.0;;
21120;SDS011;12519;43.318;21.898;2022-08-01T17:58:41;7.0;;;7.0;;
21120;SDS011;12519;43.318;21.898;2022-08-01T18:03:18;7.0;;;7.0;;
21120;SDS011;12519;43.318;21.898;2022-08-01T18:07:56;8.0;;;7.0;;
21120;SDS011;12519;43.318;21.898;2022-08-01T18:12:34;8.0;;;7.0;;
21120;SDS011;12519;43.318;21.898;2022-08-01T18:17:12;8.0;;;7.0;;
21120;SDS011;12519;43.318;21.898;2022-08-01T18:21:49;9.0;;;7.0;;
21120;SDS011;12519;43.318;21.898;2022-08-01T18:26:27;9.0;;;7.0;;
21120;SDS011;12519;43.318;21.898;2022-08-01T18:31:04;10.0;;;8.0;;
21120;SDS011;12519;43.318;21.898;2022-08-01T18:35:44;10.0;;;8.0;;
21120;SDS011;12519;43.318;21.898;2022-08-01T18:40:21;10.0;;;10.0;;
21120;SDS011;12519;43.318;21.898;2022-08-01T18:44:59;10.0;;;10.0;;
21120;SDS011;12519;43.318;21.898;2022-08-01T18:49:35;12.0;;;10.0;;
21120;SDS011;12519;43.318;21.898;2022-08-01T18:54:12;12.0;;;10.0;;
21120;SDS011;12519;43.318;21.898;2022-08-01T18:58:51;14.0;;;11.0;;
21120;SDS011;12519;43.318;21.898;2022-08-01T19:03:30;14.0;;;11.0;;
21120;SDS011;12519;43.318;21.898;2022-08-01T19:08:06;12.0;;;10.0;;
21120;SDS011;12519;43.318;21.898;2022-08-01T19:12:44;12.0;;;10.0;;
21120;SDS011;12519;43.318;21.898;2022-08-01T19:17:20;12.0;;;10.0;;
21120;SDS011;12519;43.318;21.898;2022-08-01T19:21:58;9.0;;;8.0;;
21120;SDS011;12519;43.318;21.898;2022-08-01T19:26:35;9.0;;;8.0;;
21120;SDS011;12519;43.318;21.898;2022-08-01T19:31:25;10.0;;;8.0;;
21120;SDS011;12519;43.318;21.898;2022-08-01T19:36:05;10.0;;;8.0;;
21120;SDS011;12519;43.318;21.898;2022-08-01T19:40:53;10.0;;;9.0;;
21120;SDS011;12519;43.318;21.898;2022-08-01T19:45:32;10.0;;;9.0;;
21120;SDS011;12519;43.318;21.898;2022-08-01T19:50:09;10.0;;;10.0;;
21120;SDS011;12519;43.318;21.898;2022-08-01T19:54:46;10.0;;;10.0;;
21120;SDS011;12519;43.318;21.898;2022-08-01T19:59:33;11.0;;;10.0;;
21120;SDS011;12519;43.318;21.898;2022-08-01T20:04:14;11.0;;;10.0;;
21120;SDS011;12519;43.318;21.898;2022-08-01T20:08:54;10.0;;;10.0;;
21120;SDS011;12519;43.318;21.898;2022-08-01T20:13:34;10.0;;;10.0;;
21120;SDS011;12519;43.318;21.898;2022-08-01T20:18:12;10.0;;;9.0;;
21120;SDS011;12519;43.318;21.898;2022-08-01T20:22:49;10.0;;;9.0;;
21120;SDS011;12519;43.318;21.898;2022-08-01T20:27:33;10.0;;;9.0;;
21120;SDS011;12519;43.318;21.898;2022-08-01T20:32:22;10.0;;;9.0;;
21120;SDS011;12519;43.318;21.898;2022-08-01T20:37:15;10.0;;;9.0;;
21120;SDS011;12519;43.318;21.898;2022-08-01T20:41:57;10.0;;;9.0;;
21120;SDS011;12519;43.318;21.898;2022-08-01T20:46:41;10.0;;;9.0;;
21120;SDS011;12519;43.318;21.898;2022-08-01T20:51:27;9.0;;;8.0;;
21120;SDS011;12519;43.318;21.898;2022-08-01T20:56:07;9.0;;;8.0;;
21120;SDS011;12519;43.318;21.898;2022-08-01T21:01:33;8.0;;;8.0;;
21120;SDS011;12519;43.318;21.898;2022-08-01T21:06:53;8.0;;;8.0;;
21120;SDS011;12519;43.318;21.898;2022-08-01T21:12:15;8.0;;;8.0;;
21120;SDS011;12519;43.318;21.898;2022-08-01T21:17:36;8.0;;;8.0;;
21120;SDS011;12519;43.318;21.898;2022-08-01T21:22:46;9.0;;;8.0;;
21120;SDS011;12519;43.318;21.898;2022-08-01T21:28:08;9.0;;;8.0;;
21120;SDS011;12519;43.318;21.898;2022-08-01T21:32:50;8.0;;;8.0;;
21120;SDS011;12519;43.318;21.898;2022-08-01T21:37:31;8.0;;;8.0;;
21120;SDS011;12519;43.318;21.898;2022-08-01T21:42:19;7.0;;;7.0;;
21120;SDS011;12519;43.318;21.898;2022-08-01T21:47:02;7.0;;;7.0;;
21120;SDS011;12519;43.318;21.898;2022-08-01T21:51:42;8.0;;;7.0;;
21120;SDS011;12519;43.318;21.898;2022-08-01T21:56:40;8.0;;;7.0;;
21120;SDS011;12519;43.318;21.898;2022-08-01T22:01:55;10.0;;;7.0;;
21120;SDS011;12519;43.318;21.898;2022-08-01T22:06:54;10.0;;;7.0;;
21120;SDS011;12519;43.318;21.898;2022-08-01T22:11:38;10.0;;;7.0;;
21120;SDS011;12519;43.318;21.898;2022-08-01T22:16:20;10.0;;;7.0;;
21120;SDS011;12519;43.318;21.898;2022-08-01T22:30:23;7.0;;;6.0;;
21120;SDS011;12519;43.318;21.898;2022-08-01T22:35:12;7.0;;;6.0;;
21120;SDS011;12519;43.318;21.898;2022-08-01T22:39:51;7.0;;;6.0;;
21120;SDS011;12519;43.318;21.898;2022-08-01T22:45:00;7.0;;;6.0;;
21120;SDS011;12519;43.318;21.898;2022-08-01T22:50:06;6.0;;;6.0;;
21120;SDS011;12519;43.318;21.898;2022-08-01T22:55:09;6.0;;;6.0;;
21120;SDS011;12519;43.318;21.898;2022-08-01T23:00:00;6.0;;;6.0;;
21120;SDS011;12519;43.318;21.898;2022-08-01T23:04:49;6.0;;;6.0;;
21120;SDS011;12519;43.318;21.898;2022-08-01T23:09:41;6.0;;;6.0;;
21120;SDS011;12519;43.318;21.898;2022-08-01T23:14:27;6.0;;;6.0;;
21120;SDS011;12519;43.318;21.898;2022-08-01T23:19:15;7.0;;;6.0;;
21120;SDS011;12519;43.318;21.898;2022-08-01T23:23:59;7.0;;;6.0;;
21120;SDS011;12519;43.318;21.898;2022-08-01T23:28:45;6.0;;;6.0;;
21120;SDS011;12519;43.318;21.898;2022-08-01T23:33:26;6.0;;;6.0;;
21120;SDS011;12519;43.318;21.898;2022-08-01T23:38:03;6.0;;;6.0;;
21120;SDS011;12519;43.318;21.898;2022-08-01T23:42:44;6.0;;;6.0;;
21120;SDS011;12519;43.318;21.898;2022-08-01T23:47:23;6.0;;;6.0;;
21120;SDS011;12519;43.318;21.898;2022-08-01T23:52:01;6.0;;;6.0;;
21120;SDS011;12519;43.318;21.898;2022-08-01T23:56:41;6.0;;;6.0;;
